sensor_id;sensor_type;location;lat;lon;timestamp;pressure;altitude;pressure_sealevel;temperature;humidity
74169;BME280;62523;53.336;83.690;2023-09-19T00:03:29;99501.41;;;12.26;100.00
74169;BME280;62523;53.336;83.690;2023-09-19T00:08:32;99494.53;;;12.23;100.00
74169;BME280;62523;53.336;83.690;2023-09-19T00:13:34;99488.31;;;12.24;100.00
74169;BME280;62523;53.336;83.690;2023-09-19T00:18:38;99498.06;;;12.24;100.00
74169;BME280;62523;53.336;83.690;2023-09-19T00:23:39;99500.69;;;12.24;100.00
74169;BME280;62523;53.336;83.690;2023-09-19T00:28:44;99502.28;;;12.26;100.00
74169;BME280;62523;53.336;83.690;2023-09-19T00:33:45;99500.97;;;12.34;100.00
74169;BME280;62523;53.336;83.690;2023-09-19T00:38:46;99494.94;;;12.46;100.00
74169;BME280;62523;53.336;83.690;2023-09-19T00:43:48;99500.63;;;12.54;100.00
74169;BME280;62523;53.336;83.690;2023-09-19T00:48:51;99507.28;;;12.60;100.00
74169;BME280;62523;53.336;83.690;2023-09-19T00:53:54;99512.19;;;12.66;100.00
74169;BME280;62523;53.336;83.690;2023-09-19T00:58:55;99499.28;;;12.76;100.00
74169;BME280;62523;53.336;83.690;2023-09-19T01:03:58;99498.50;;;12.88;100.00
74169;BME280;62523;53.336;83.690;2023-09-19T01:08:59;99497.19;;;12.95;100.00
74169;BME280;62523;53.336;83.690;2023-09-19T01:20:13;99499.09;;;13.20;100.00
74169;BME280;62523;53.336;83.690;2023-09-19T01:30:47;99492.75;;;13.37;100.00
74169;BME280;62523;53.336;83.690;2023-09-19T01:35:52;99491.56;;;13.56;100.00
74169;BME280;62523;53.336;83.690;2023-09-19T01:41:09;99489.78;;;13.69;100.00
74169;BME280;62523;53.336;83.690;2023-09-19T01:46:17;99486.81;;;13.73;100.00
74169;BME280;62523;53.336;83.690;2023-09-19T01:56:57;99479.44;;;13.91;100.00
74169;BME280;62523;53.336;83.690;2023-09-19T02:02:03;99483.47;;;13.97;100.00
74169;BME280;62523;53.336;83.690;2023-09-19T02:07:06;99484.63;;;13.80;100.00
74169;BME280;62523;53.336;83.690;2023-09-19T02:12:09;99487.16;;;13.82;100.00
74169;BME280;62523;53.336;83.690;2023-09-19T02:17:12;99486.13;;;13.97;100.00
74169;BME280;62523;53.336;83.690;2023-09-19T02:22:13;99482.66;;;14.09;100.00
74169;BME280;62523;53.336;83.690;2023-09-19T02:27:15;99489.13;;;14.18;100.00
74169;BME280;62523;53.336;83.690;2023-09-19T02:32:17;99491.97;;;14.41;100.00
74169;BME280;62523;53.336;83.690;2023-09-19T02:37:19;99487.00;;;14.62;100.00
74169;BME280;62523;53.336;83.690;2023-09-19T02:42:21;99498.34;;;14.51;100.00
74169;BME280;62523;53.336;83.690;2023-09-19T02:47:23;99495.78;;;14.37;100.00
74169;BME280;62523;53.336;83.690;2023-09-19T02:52:25;99498.66;;;14.46;100.00
74169;BME280;62523;53.336;83.690;2023-09-19T02:57:26;99494.41;;;14.82;100.00
74169;BME280;62523;53.336;83.690;2023-09-19T03:02:28;99492.63;;;14.83;100.00
74169;BME280;62523;53.336;83.690;2023-09-19T03:07:34;99500.72;;;15.05;100.00
74169;BME280;62523;53.336;83.690;2023-09-19T03:12:35;99509.09;;;14.99;100.00
74169;BME280;62523;53.336;83.690;2023-09-19T03:17:38;99504.06;;;15.44;100.00
74169;BME280;62523;53.336;83.690;2023-09-19T03:22:45;99496.59;;;15.38;100.00
74169;BME280;62523;53.336;83.690;2023-09-19T03:27:47;99506.72;;;15.44;100.00
74169;BME280;62523;53.336;83.690;2023-09-19T03:32:49;99494.91;;;15.85;100.00
74169;BME280;62523;53.336;83.690;2023-09-19T03:37:52;99499.34;;;15.85;100.00
74169;BME280;62523;53.336;83.690;2023-09-19T03:42:54;99488.56;;;15.75;98.38
74169;BME280;62523;53.336;83.690;2023-09-19T03:47:56;99487.88;;;15.84;98.44
74169;BME280;62523;53.336;83.690;2023-09-19T03:52:59;99496.53;;;16.22;98.03
74169;BME280;62523;53.336;83.690;2023-09-19T03:58:02;99494.22;;;16.17;96.07
74169;BME280;62523;53.336;83.690;2023-09-19T04:03:05;99488.75;;;16.65;95.35
74169;BME280;62523;53.336;83.690;2023-09-19T04:08:07;99477.75;;;16.81;94.37
74169;BME280;62523;53.336;83.690;2023-09-19T04:13:09;99489.81;;;16.51;96.08
74169;BME280;62523;53.336;83.690;2023-09-19T04:18:11;99484.38;;;16.75;94.12
74169;BME280;62523;53.336;83.690;2023-09-19T04:23:13;99485.44;;;16.28;94.09
74169;BME280;62523;53.336;83.690;2023-09-19T04:28:15;99485.94;;;16.55;95.79
74169;BME280;62523;53.336;83.690;2023-09-19T04:33:16;99477.50;;;16.50;94.61
74169;BME280;62523;53.336;83.690;2023-09-19T04:38:18;99483.88;;;16.70;94.28
74169;BME280;62523;53.336;83.690;2023-09-19T04:43:20;99480.50;;;16.79;94.65
74169;BME280;62523;53.336;83.690;2023-09-19T04:48:22;99469.59;;;17.05;93.55
74169;BME280;62523;53.336;83.690;2023-09-19T04:53:25;99455.69;;;18.19;87.08
74169;BME280;62523;53.336;83.690;2023-09-19T04:58:27;99465.97;;;17.50;89.41
74169;BME280;62523;53.336;83.690;2023-09-19T05:03:28;99468.66;;;17.82;88.22
74169;BME280;62523;53.336;83.690;2023-09-19T05:08:30;99460.47;;;17.95;90.21
74169;BME280;62523;53.336;83.690;2023-09-19T05:13:32;99463.06;;;18.06;90.85
74169;BME280;62523;53.336;83.690;2023-09-19T05:18:33;99464.28;;;18.02;90.43
74169;BME280;62523;53.336;83.690;2023-09-19T05:23:34;99464.16;;;18.04;88.82
74169;BME280;62523;53.336;83.690;2023-09-19T05:28:36;99473.06;;;17.93;93.13
74169;BME280;62523;53.336;83.690;2023-09-19T05:33:38;99468.47;;;17.95;92.31
74169;BME280;62523;53.336;83.690;2023-09-19T05:38:40;99475.47;;;17.96;93.08
74169;BME280;62523;53.336;83.690;2023-09-19T05:43:43;99469.31;;;18.16;92.32
74169;BME280;62523;53.336;83.690;2023-09-19T05:48:44;99479.38;;;18.13;93.92
74169;BME280;62523;53.336;83.690;2023-09-19T05:53:48;99479.53;;;18.11;90.44
74169;BME280;62523;53.336;83.690;2023-09-19T05:58:51;99473.00;;;18.25;88.82
74169;BME280;62523;53.336;83.690;2023-09-19T06:03:53;99476.59;;;18.45;86.87
74169;BME280;62523;53.336;83.690;2023-09-19T06:08:55;99456.88;;;18.06;76.46
74169;BME280;62523;53.336;83.690;2023-09-19T06:13:56;99454.16;;;17.96;74.12
74169;BME280;62523;53.336;83.690;2023-09-19T06:18:58;99455.56;;;18.21;75.09
74169;BME280;62523;53.336;83.690;2023-09-19T06:24:02;99453.03;;;18.19;76.73
74169;BME280;62523;53.336;83.690;2023-09-19T06:29:04;99449.09;;;18.14;76.95
74169;BME280;62523;53.336;83.690;2023-09-19T06:34:08;99450.72;;;17.84;79.86
74169;BME280;62523;53.336;83.690;2023-09-19T06:39:09;99451.97;;;17.69;84.61
74169;BME280;62523;53.336;83.690;2023-09-19T06:44:12;99457.22;;;17.59;82.67
74169;BME280;62523;53.336;83.690;2023-09-19T06:49:13;99461.03;;;17.45;87.25
74169;BME280;62523;53.336;83.690;2023-09-19T06:54:16;99454.00;;;17.44;89.85
74169;BME280;62523;53.336;83.690;2023-09-19T06:59:19;99452.66;;;17.82;86.14
74169;BME280;62523;53.336;83.690;2023-09-19T07:04:20;99457.38;;;17.57;80.16
74169;BME280;62523;53.336;83.690;2023-09-19T07:09:22;99446.16;;;17.43;81.20
74169;BME280;62523;53.336;83.690;2023-09-19T07:14:23;99447.94;;;17.21;82.65
74169;BME280;62523;53.336;83.690;2023-09-19T07:19:25;99447.72;;;17.13;82.96
74169;BME280;62523;53.336;83.690;2023-09-19T07:24:29;99445.53;;;17.07;83.19
74169;BME280;62523;53.336;83.690;2023-09-19T07:29:31;99432.81;;;17.22;82.93
74169;BME280;62523;53.336;83.690;2023-09-19T07:34:32;99426.91;;;17.07;85.13
74169;BME280;62523;53.336;83.690;2023-09-19T07:39:33;99425.88;;;17.30;84.87
74169;BME280;62523;53.336;83.690;2023-09-19T07:44:35;99412.81;;;17.27;82.57
74169;BME280;62523;53.336;83.690;2023-09-19T07:49:37;99415.50;;;17.16;83.67
74169;BME280;62523;53.336;83.690;2023-09-19T07:54:39;99409.28;;;17.38;84.16
74169;BME280;62523;53.336;83.690;2023-09-19T07:59:45;99405.34;;;17.21;85.24
74169;BME280;62523;53.336;83.690;2023-09-19T08:04:47;99407.69;;;17.35;87.33
74169;BME280;62523;53.336;83.690;2023-09-19T08:09:48;99401.91;;;16.98;87.21
74169;BME280;62523;53.336;83.690;2023-09-19T08:14:50;99403.16;;;17.47;85.61
74169;BME280;62523;53.336;83.690;2023-09-19T08:19:51;99386.41;;;17.56;82.35
74169;BME280;62523;53.336;83.690;2023-09-19T08:24:53;99390.97;;;17.45;84.04
74169;BME280;62523;53.336;83.690;2023-09-19T08:29:55;99388.47;;;17.32;85.10
74169;BME280;62523;53.336;83.690;2023-09-19T08:34:56;99388.81;;;17.06;86.54
74169;BME280;62523;53.336;83.690;2023-09-19T08:39:58;99390.28;;;17.31;85.17
74169;BME280;62523;53.336;83.690;2023-09-19T08:44:59;99376.53;;;17.89;82.26
74169;BME280;62523;53.336;83.690;2023-09-19T08:50:07;99375.97;;;17.65;81.31
74169;BME280;62523;53.336;83.690;2023-09-19T08:55:15;99370.28;;;18.00;81.57
74169;BME280;62523;53.336;83.690;2023-09-19T09:00:23;99365.47;;;18.15;81.52
74169;BME280;62523;53.336;83.690;2023-09-19T09:05:29;99357.81;;;18.31;78.56
74169;BME280;62523;53.336;83.690;2023-09-19T09:10:34;99355.28;;;18.30;78.99
74169;BME280;62523;53.336;83.690;2023-09-19T09:15:43;99344.03;;;18.76;79.42
74169;BME280;62523;53.336;83.690;2023-09-19T09:20:45;99333.69;;;18.33;77.72
74169;BME280;62523;53.336;83.690;2023-09-19T09:25:55;99328.97;;;18.56;79.01
74169;BME280;62523;53.336;83.690;2023-09-19T09:30:58;99325.03;;;18.50;76.65
74169;BME280;62523;53.336;83.690;2023-09-19T09:36:00;99333.56;;;19.04;75.52
74169;BME280;62523;53.336;83.690;2023-09-19T09:41:03;99337.47;;;18.80;77.16
74169;BME280;62523;53.336;83.690;2023-09-19T09:46:16;99333.53;;;18.34;77.49
74169;BME280;62523;53.336;83.690;2023-09-19T09:51:30;99325.47;;;18.15;79.58
74169;BME280;62523;53.336;83.690;2023-09-19T09:56:32;99331.63;;;18.06;80.84
74169;BME280;62523;53.336;83.690;2023-09-19T10:01:48;99333.28;;;18.37;80.93
74169;BME280;62523;53.336;83.690;2023-09-19T10:06:50;99322.47;;;17.98;85.00
74169;BME280;62523;53.336;83.690;2023-09-19T10:12:06;99319.09;;;17.54;82.64
74169;BME280;62523;53.336;83.690;2023-09-19T10:17:10;99319.22;;;17.53;82.61
74169;BME280;62523;53.336;83.690;2023-09-19T10:22:17;99317.16;;;17.56;82.70
74169;BME280;62523;53.336;83.690;2023-09-19T10:27:26;99299.34;;;17.57;82.48
74169;BME280;62523;53.336;83.690;2023-09-19T10:32:28;99299.66;;;17.64;83.18
74169;BME280;62523;53.336;83.690;2023-09-19T10:37:35;99294.50;;;17.62;86.70
74169;BME280;62523;53.336;83.690;2023-09-19T10:42:40;99303.03;;;17.66;88.15
74169;BME280;62523;53.336;83.690;2023-09-19T10:47:43;99310.88;;;17.57;88.67
74169;BME280;62523;53.336;83.690;2023-09-19T10:52:45;99315.50;;;17.55;91.30
74169;BME280;62523;53.336;83.690;2023-09-19T10:57:47;99315.47;;;17.34;94.64
74169;BME280;62523;53.336;83.690;2023-09-19T11:08:24;99330.88;;;17.31;95.77
74169;BME280;62523;53.336;83.690;2023-09-19T11:13:29;99327.44;;;17.19;95.66
74169;BME280;62523;53.336;83.690;2023-09-19T11:23:43;99340.41;;;17.12;98.43
74169;BME280;62523;53.336;83.690;2023-09-19T11:29:25;99348.78;;;16.96;100.00
74169;BME280;62523;53.336;83.690;2023-09-19T11:34:46;99338.09;;;16.87;100.00
74169;BME280;62523;53.336;83.690;2023-09-19T11:40:09;99342.53;;;16.86;100.00
74169;BME280;62523;53.336;83.690;2023-09-19T11:50:58;99354.41;;;16.71;100.00
74169;BME280;62523;53.336;83.690;2023-09-19T11:56:01;99357.56;;;16.65;100.00
74169;BME280;62523;53.336;83.690;2023-09-19T12:01:03;99351.28;;;16.66;100.00
74169;BME280;62523;53.336;83.690;2023-09-19T12:06:12;99346.09;;;16.53;100.00
74169;BME280;62523;53.336;83.690;2023-09-19T12:11:17;99356.50;;;16.45;98.10
74169;BME280;62523;53.336;83.690;2023-09-19T12:16:20;99354.09;;;16.42;97.36
74169;BME280;62523;53.336;83.690;2023-09-19T12:21:30;99363.88;;;16.30;97.63
74169;BME280;62523;53.336;83.690;2023-09-19T12:26:42;99364.50;;;16.11;100.00
74169;BME280;62523;53.336;83.690;2023-09-19T12:31:55;99362.69;;;16.11;98.88
74169;BME280;62523;53.336;83.690;2023-09-19T12:37:13;99355.09;;;16.07;97.08
74169;BME280;62523;53.336;83.690;2023-09-19T12:42:28;99357.13;;;16.14;96.09
74169;BME280;62523;53.336;83.690;2023-09-19T12:47:33;99365.09;;;16.14;95.15
74169;BME280;62523;53.336;83.690;2023-09-19T12:52:39;99357.25;;;16.02;97.71
74169;BME280;62523;53.336;83.690;2023-09-19T12:57:41;99363.91;;;15.96;98.48
74169;BME280;62523;53.336;83.690;2023-09-19T13:03:16;99368.22;;;15.86;99.72
74169;BME280;62523;53.336;83.690;2023-09-19T13:13:34;99360.06;;;15.65;97.89
74169;BME280;62523;53.336;83.690;2023-09-19T13:18:48;99360.47;;;15.71;94.91
74169;BME280;62523;53.336;83.690;2023-09-19T13:23:54;99354.75;;;15.53;94.77
74169;BME280;62523;53.336;83.690;2023-09-19T13:29:01;99357.41;;;15.53;92.98
74169;BME280;62523;53.336;83.690;2023-09-19T13:34:02;99353.34;;;15.72;91.06
74169;BME280;62523;53.336;83.690;2023-09-19T13:39:04;99352.09;;;15.65;90.40
74169;BME280;62523;53.336;83.690;2023-09-19T13:44:06;99353.91;;;15.64;90.65
74169;BME280;62523;53.336;83.690;2023-09-19T13:49:09;99357.91;;;15.70;91.33
74169;BME280;62523;53.336;83.690;2023-09-19T13:54:10;99368.28;;;15.26;93.86
74169;BME280;62523;53.336;83.690;2023-09-19T13:59:16;99375.97;;;15.18;94.62
74169;BME280;62523;53.336;83.690;2023-09-19T14:04:17;99374.19;;;15.19;95.07
74169;BME280;62523;53.336;83.690;2023-09-19T14:09:19;99373.69;;;15.25;95.63
74169;BME280;62523;53.336;83.690;2023-09-19T14:14:21;99383.91;;;15.18;96.47
74169;BME280;62523;53.336;83.690;2023-09-19T14:19:22;99382.28;;;15.28;97.36
74169;BME280;62523;53.336;83.690;2023-09-19T14:24:24;99391.16;;;15.16;98.75
74169;BME280;62523;53.336;83.690;2023-09-19T14:29:25;99382.63;;;14.76;100.00
74169;BME280;62523;53.336;83.690;2023-09-19T14:34:27;99391.09;;;14.81;100.00
74169;BME280;62523;53.336;83.690;2023-09-19T14:39:28;99394.19;;;14.74;100.00
74169;BME280;62523;53.336;83.690;2023-09-19T14:44:30;99403.16;;;14.61;100.00
74169;BME280;62523;53.336;83.690;2023-09-19T14:49:35;99412.06;;;14.84;100.00
74169;BME280;62523;53.336;83.690;2023-09-19T14:54:38;99415.34;;;14.63;100.00
74169;BME280;62523;53.336;83.690;2023-09-19T14:59:42;99416.50;;;14.46;100.00
74169;BME280;62523;53.336;83.690;2023-09-19T15:04:43;99421.47;;;14.64;100.00
74169;BME280;62523;53.336;83.690;2023-09-19T15:09:47;99427.28;;;14.69;100.00
74169;BME280;62523;53.336;83.690;2023-09-19T15:14:49;99470.13;;;13.04;100.00
74169;BME280;62523;53.336;83.690;2023-09-19T15:19:50;99473.91;;;13.42;100.00
74169;BME280;62523;53.336;83.690;2023-09-19T15:24:53;99461.78;;;13.52;100.00
74169;BME280;62523;53.336;83.690;2023-09-19T15:29:58;99463.47;;;13.26;100.00
74169;BME280;62523;53.336;83.690;2023-09-19T15:35:00;99470.56;;;13.25;100.00
74169;BME280;62523;53.336;83.690;2023-09-19T15:40:03;99468.22;;;13.21;100.00
74169;BME280;62523;53.336;83.690;2023-09-19T15:45:09;99459.22;;;13.23;100.00
74169;BME280;62523;53.336;83.690;2023-09-19T15:50:12;99458.56;;;13.34;100.00
74169;BME280;62523;53.336;83.690;2023-09-19T15:55:17;99455.50;;;13.40;100.00
74169;BME280;62523;53.336;83.690;2023-09-19T16:00:18;99453.16;;;13.36;100.00
74169;BME280;62523;53.336;83.690;2023-09-19T16:05:20;99444.09;;;13.52;100.00
74169;BME280;62523;53.336;83.690;2023-09-19T16:10:22;99430.69;;;13.68;100.00
74169;BME280;62523;53.336;83.690;2023-09-19T16:15:24;99423.06;;;13.64;100.00
74169;BME280;62523;53.336;83.690;2023-09-19T16:20:25;99433.19;;;13.57;100.00
74169;BME280;62523;53.336;83.690;2023-09-19T16:25:29;99418.06;;;13.59;100.00
74169;BME280;62523;53.336;83.690;2023-09-19T16:30:32;99411.75;;;13.62;100.00
74169;BME280;62523;53.336;83.690;2023-09-19T16:35:42;99399.25;;;13.64;100.00
74169;BME280;62523;53.336;83.690;2023-09-19T16:40:57;99400.44;;;13.72;100.00
74169;BME280;62523;53.336;83.690;2023-09-19T16:46:00;99387.94;;;13.87;100.00
74169;BME280;62523;53.336;83.690;2023-09-19T16:51:05;99388.88;;;13.86;100.00
74169;BME280;62523;53.336;83.690;2023-09-19T16:56:09;99389.09;;;13.70;100.00
74169;BME280;62523;53.336;83.690;2023-09-19T17:01:13;99384.72;;;13.57;100.00
74169;BME280;62523;53.336;83.690;2023-09-19T17:06:16;99384.38;;;13.48;100.00
74169;BME280;62523;53.336;83.690;2023-09-19T17:11:18;99390.84;;;13.31;100.00
74169;BME280;62523;53.336;83.690;2023-09-19T17:16:21;99375.13;;;13.28;100.00
74169;BME280;62523;53.336;83.690;2023-09-19T17:21:24;99371.13;;;13.36;100.00
74169;BME280;62523;53.336;83.690;2023-09-19T17:26:25;99369.44;;;13.35;100.00
74169;BME280;62523;53.336;83.690;2023-09-19T17:31:27;99366.16;;;13.31;100.00
74169;BME280;62523;53.336;83.690;2023-09-19T17:36:30;99366.06;;;13.32;100.00
74169;BME280;62523;53.336;83.690;2023-09-19T17:41:36;99365.97;;;13.34;100.00
74169;BME280;62523;53.336;83.690;2023-09-19T17:46:37;99355.75;;;13.28;100.00
74169;BME280;62523;53.336;83.690;2023-09-19T17:51:40;99372.56;;;13.27;100.00
74169;BME280;62523;53.336;83.690;2023-09-19T17:56:41;99364.84;;;13.24;100.00
74169;BME280;62523;53.336;83.690;2023-09-19T18:01:42;99356.81;;;13.25;100.00
74169;BME280;62523;53.336;83.690;2023-09-19T18:06:46;99360.97;;;13.29;100.00
74169;BME280;62523;53.336;83.690;2023-09-19T18:11:49;99356.75;;;13.40;100.00
74169;BME280;62523;53.336;83.690;2023-09-19T18:16:51;99359.38;;;13.40;100.00
74169;BME280;62523;53.336;83.690;2023-09-19T18:21:57;99358.66;;;13.10;100.00
74169;BME280;62523;53.336;83.690;2023-09-19T18:27:02;99366.88;;;12.93;100.00
74169;BME280;62523;53.336;83.690;2023-09-19T18:32:04;99380.13;;;12.79;100.00
74169;BME280;62523;53.336;83.690;2023-09-19T18:37:06;99396.97;;;12.49;100.00
74169;BME280;62523;53.336;83.690;2023-09-19T18:42:07;99388.25;;;12.20;100.00
74169;BME280;62523;53.336;83.690;2023-09-19T18:47:09;99415.19;;;12.11;100.00
74169;BME280;62523;53.336;83.690;2023-09-19T18:52:10;99433.88;;;12.07;100.00
74169;BME280;62523;53.336;83.690;2023-09-19T18:57:11;99422.84;;;12.01;100.00
74169;BME280;62523;53.336;83.690;2023-09-19T19:02:15;99424.75;;;11.83;100.00
74169;BME280;62523;53.336;83.690;2023-09-19T19:07:17;99429.75;;;11.73;100.00
74169;BME280;62523;53.336;83.690;2023-09-19T19:12:23;99422.59;;;11.75;100.00
74169;BME280;62523;53.336;83.690;2023-09-19T19:17:24;99426.06;;;11.76;100.00
74169;BME280;62523;53.336;83.690;2023-09-19T19:22:26;99421.63;;;11.76;100.00
74169;BME280;62523;53.336;83.690;2023-09-19T19:27:29;99416.66;;;11.86;100.00
74169;BME280;62523;53.336;83.690;2023-09-19T19:32:31;99408.56;;;11.75;100.00
74169;BME280;62523;53.336;83.690;2023-09-19T19:37:32;99406.75;;;11.75;100.00
74169;BME280;62523;53.336;83.690;2023-09-19T19:42:34;99402.13;;;11.64;100.00
74169;BME280;62523;53.336;83.690;2023-09-19T19:47:35;99411.44;;;11.70;100.00
74169;BME280;62523;53.336;83.690;2023-09-19T19:52:37;99398.19;;;11.86;100.00
74169;BME280;62523;53.336;83.690;2023-09-19T19:57:38;99391.91;;;11.88;100.00
74169;BME280;62523;53.336;83.690;2023-09-19T20:02:40;99385.88;;;11.56;100.00
74169;BME280;62523;53.336;83.690;2023-09-19T20:07:42;99388.44;;;11.58;100.00
74169;BME280;62523;53.336;83.690;2023-09-19T20:12:44;99374.28;;;11.59;100.00
74169;BME280;62523;53.336;83.690;2023-09-19T20:17:46;99374.03;;;11.33;100.00
74169;BME280;62523;53.336;83.690;2023-09-19T20:22:47;99374.03;;;11.33;100.00
74169;BME280;62523;53.336;83.690;2023-09-19T20:27:49;99378.69;;;11.14;100.00
74169;BME280;62523;53.336;83.690;2023-09-19T20:32:51;99378.88;;;11.11;100.00
74169;BME280;62523;53.336;83.690;2023-09-19T20:37:52;99378.13;;;11.09;100.00
74169;BME280;62523;53.336;83.690;2023-09-19T20:43:01;99375.25;;;10.97;100.00
74169;BME280;62523;53.336;83.690;2023-09-19T20:48:03;99363.50;;;11.33;100.00
74169;BME280;62523;53.336;83.690;2023-09-19T20:53:05;99363.06;;;11.11;100.00
74169;BME280;62523;53.336;83.690;2023-09-19T20:58:06;99367.09;;;11.16;100.00
74169;BME280;62523;53.336;83.690;2023-09-19T21:03:08;99368.41;;;11.09;100.00
74169;BME280;62523;53.336;83.690;2023-09-19T21:08:14;99366.72;;;11.08;100.00
74169;BME280;62523;53.336;83.690;2023-09-19T21:13:15;99360.28;;;11.28;100.00
74169;BME280;62523;53.336;83.690;2023-09-19T21:18:17;99371.31;;;11.35;100.00
74169;BME280;62523;53.336;83.690;2023-09-19T21:23:19;99370.25;;;11.53;100.00
74169;BME280;62523;53.336;83.690;2023-09-19T21:28:20;99370.25;;;11.67;100.00
74169;BME280;62523;53.336;83.690;2023-09-19T21:33:22;99366.00;;;11.65;100.00
74169;BME280;62523;53.336;83.690;2023-09-19T21:38:24;99367.69;;;11.52;100.00
74169;BME280;62523;53.336;83.690;2023-09-19T21:43:26;99354.09;;;11.43;100.00
74169;BME280;62523;53.336;83.690;2023-09-19T21:48:27;99359.41;;;11.58;100.00
74169;BME280;62523;53.336;83.690;2023-09-19T21:53:29;99356.78;;;11.72;100.00
74169;BME280;62523;53.336;83.690;2023-09-19T21:58:35;99352.66;;;11.68;100.00
74169;BME280;62523;53.336;83.690;2023-09-19T22:03:39;99354.81;;;11.76;100.00
74169;BME280;62523;53.336;83.690;2023-09-19T22:08:41;99347.88;;;11.89;100.00
74169;BME280;62523;53.336;83.690;2023-09-19T22:13:43;99349.97;;;11.98;100.00
74169;BME280;62523;53.336;83.690;2023-09-19T22:18:45;99357.00;;;11.83;100.00
74169;BME280;62523;53.336;83.690;2023-09-19T22:23:48;99356.69;;;11.74;100.00
74169;BME280;62523;53.336;83.690;2023-09-19T22:28:56;99367.44;;;11.26;100.00
74169;BME280;62523;53.336;83.690;2023-09-19T22:33:58;99379.16;;;11.06;100.00
74169;BME280;62523;53.336;83.690;2023-09-19T22:38:59;99379.50;;;11.00;100.00
74169;BME280;62523;53.336;83.690;2023-09-19T22:44:13;99382.38;;;10.79;100.00
74169;BME280;62523;53.336;83.690;2023-09-19T22:49:15;99382.66;;;10.75;100.00
74169;BME280;62523;53.336;83.690;2023-09-19T22:54:19;99381.41;;;10.82;100.00
74169;BME280;62523;53.336;83.690;2023-09-19T22:59:28;99382.88;;;10.86;100.00
74169;BME280;62523;53.336;83.690;2023-09-19T23:04:31;99375.25;;;10.81;100.00
74169;BME280;62523;53.336;83.690;2023-09-19T23:09:35;99379.69;;;10.81;100.00
74169;BME280;62523;53.336;83.690;2023-09-19T23:14:37;99385.91;;;10.80;100.00
74169;BME280;62523;53.336;83.690;2023-09-19T23:19:40;99384.88;;;10.82;100.00
74169;BME280;62523;53.336;83.690;2023-09-19T23:24:42;99379.69;;;10.81;100.00
74169;BME280;62523;53.336;83.690;2023-09-19T23:29:44;99375.53;;;10.93;100.00
74169;BME280;62523;53.336;83.690;2023-09-19T23:34:46;99369.78;;;11.00;100.00
74169;BME280;62523;53.336;83.690;2023-09-19T23:39:48;99364.13;;;11.22;100.00
74169;BME280;62523;53.336;83.690;2023-09-19T23:44:52;99369.09;;;10.97;100.00
74169;BME280;62523;53.336;83.690;2023-09-19T23:49:55;99365.50;;;11.14;100.00
74169;BME280;62523;53.336;83.690;2023-09-19T23:54:58;99360.84;;;11.03;100.00
